Time;durP1;ratioP1;P1;durP2;ratioP2;P2;SDS_P1;SDS_P2;PMS_P1;PMS_P2;Temp;Humidity;BMP_temperature;BMP_pressure;BME280_temperature;BME280_humidity;BME280_pressure;Samples;Min_cycle;Max_cycle;Signal;HPM_P1;HPM_P2
2023/07/02 00:31:13;;;;;;;0.30;0.30;;;;;;;;;;7416238;19;20222;-93
2023/07/02 00:33:40;;;;;;;1.45;0.63;;;;;;;;;;7417054;19;20160;-94
2023/07/02 00:36:06;;;;;;;0.40;0.40;;;;;;;;;;7419881;19;20129;-93
2023/07/02 00:38:33;;;;;;;0.30;0.30;;;;;;;;;;7401809;19;20232;-93
2023/07/02 00:41:00;;;;;;;0.60;0.60;;;;;;;;;;7413083;19;20140;-95
2023/07/02 00:43:26;;;;;;;0.40;0.40;;;;;;;;;;7417714;19;20133;-94
2023/07/02 00:45:53;;;;;;;0.50;0.50;;;;;;;;;;7414101;19;20133;-95
2023/07/02 00:48:20;;;;;;;0.38;0.38;;;;;;;;;;7416454;19;20133;-94
2023/07/02 00:50:47;;;;;;;0.50;0.50;;;;;;;;;;7414119;19;20140;-95
2023/07/02 00:53:14;;;;;;;1.30;0.82;;;;;;;;;;7414528;19;20140;-96
2023/07/02 00:55:41;;;;;;;0.60;0.60;;;;;;;;;;7419542;19;20132;-93
2023/07/02 00:58:09;;;;;;;0.65;0.65;;;;;;;;;;7415802;19;20144;-95
2023/07/02 01:00:36;;;;;;;0.38;0.38;;;;;;;;;;7415224;19;20153;-94
2023/07/02 01:03:03;;;;;;;0.63;0.63;;;;;;;;;;7414601;19;20149;-94
2023/07/02 01:05:35;;;;;;;0.50;0.50;;;;;;;;;;7413028;19;20133;-93
2023/07/02 01:08:04;;;;;;;0.80;0.80;;;;;;;;;;7417158;19;20129;-94
2023/07/02 01:10:32;;;;;;;0.45;0.35;;;;;;;;;;7417086;19;20152;-96
2023/07/02 01:13:08;;;;;;;0.35;0.35;;;;;;;;;;7419923;19;20142;-96
2023/07/02 01:25:36;;;;;;;0.30;0.30;;;;;;;;;;7392895;19;20266;-90
2023/07/02 01:28:03;;;;;;;0.30;0.30;;;;;;;;;;7398295;19;20197;-90
2023/07/02 01:30:29;;;;;;;0.30;0.30;;;;;;;;;;7397053;19;20151;-89
2023/07/02 01:32:56;;;;;;;0.60;0.52;;;;;;;;;;7397476;19;20220;-88
2023/07/02 01:35:23;;;;;;;0.52;0.52;;;;;;;;;;7396671;19;20148;-88
2023/07/02 01:37:51;;;;;;;0.50;0.50;;;;;;;;;;7395805;19;20133;-91
2023/07/02 01:40:17;;;;;;;0.30;0.30;;;;;;;;;;7396330;19;20131;-91
2023/07/02 01:42:44;;;;;;;0.40;0.40;;;;;;;;;;7396929;19;20632;-89
2023/07/02 01:45:11;;;;;;;0.40;0.40;;;;;;;;;;7397233;19;20163;-88
2023/07/02 01:47:37;;;;;;;0.98;0.98;;;;;;;;;;7396423;19;20144;-89
2023/07/02 01:50:05;;;;;;;0.50;0.47;;;;;;;;;;7393264;19;20255;-90
2023/07/02 01:52:33;;;;;;;0.55;0.55;;;;;;;;;;7388261;19;20153;-91
2023/07/02 01:55:01;;;;;;;0.50;0.50;;;;;;;;;;7400258;19;20152;-88
2023/07/02 01:57:29;;;;;;;0.55;0.55;;;;;;;;;;7410220;19;20137;-89
2023/07/02 01:59:56;;;;;;;0.55;0.47;;;;;;;;;;7404702;19;20125;-89
2023/07/02 02:02:23;;;;;;;0.95;0.63;;;;;;;;;;7407181;19;20496;-88
2023/07/02 02:04:49;;;;;;;0.38;0.38;;;;;;;;;;7409666;19;20705;-89
2023/07/02 02:07:16;;;;;;;0.30;0.30;;;;;;;;;;7409349;19;20617;-93
2023/07/02 02:09:43;;;;;;;0.40;0.40;;;;;;;;;;7405407;19;20148;-90
2023/07/02 02:12:10;;;;;;;0.30;0.30;;;;;;;;;;7411104;19;20137;-90
2023/07/02 02:14:36;;;;;;;0.40;0.40;;;;;;;;;;7410759;19;20158;-91
2023/07/02 02:17:03;;;;;;;1.42;0.82;;;;;;;;;;7410459;19;20141;-89
2023/07/02 02:19:30;;;;;;;0.50;0.50;;;;;;;;;;7408656;19;20162;-89
2023/07/02 02:21:56;;;;;;;0.73;0.73;;;;;;;;;;7407008;19;20152;-89
2023/07/02 02:24:23;;;;;;;0.65;0.65;;;;;;;;;;7409180;19;20139;-88
2023/07/02 02:26:50;;;;;;;0.63;0.63;;;;;;;;;;7408529;19;20125;-89
2023/07/02 02:29:16;;;;;;;0.88;0.85;;;;;;;;;;7409907;19;20148;-88
2023/07/02 02:31:43;;;;;;;0.52;0.52;;;;;;;;;;7409618;19;20140;-88
2023/07/02 02:34:10;;;;;;;0.60;0.60;;;;;;;;;;7409609;19;20133;-89
2023/07/02 02:36:37;;;;;;;0.60;0.60;;;;;;;;;;7407431;19;20152;-88
2023/07/02 02:39:04;;;;;;;0.70;0.70;;;;;;;;;;7411047;19;20141;-90
2023/07/02 02:41:31;;;;;;;1.20;1.13;;;;;;;;;;7409464;19;20133;-88
2023/07/02 02:43:58;;;;;;;0.60;0.60;;;;;;;;;;7408230;19;20476;-87
2023/07/02 02:46:25;;;;;;;0.60;0.60;;;;;;;;;;7409242;19;20148;-89
2023/07/02 02:48:51;;;;;;;0.30;0.30;;;;;;;;;;7411360;19;20176;-88
2023/07/02 02:51:18;;;;;;;0.82;0.82;;;;;;;;;;7409895;19;20157;-88
2023/07/02 02:53:46;;;;;;;0.40;0.40;;;;;;;;;;7409484;19;20143;-88
2023/07/02 02:56:12;;;;;;;0.52;0.52;;;;;;;;;;7408395;19;20665;-88
2023/07/02 02:58:43;;;;;;;0.50;0.50;;;;;;;;;;7409370;19;20140;-87
2023/07/02 03:01:10;;;;;;;0.40;0.40;;;;;;;;;;7406767;19;20143;-88
2023/07/02 03:03:45;;;;;;;0.52;0.52;;;;;;;;;;7407388;19;20150;-89
2023/07/02 03:06:15;;;;;;;0.60;0.60;;;;;;;;;;7405105;19;20231;-90
2023/07/02 03:08:42;;;;;;;1.48;0.95;;;;;;;;;;7400918;19;20658;-87
2023/07/02 03:11:09;;;;;;;0.60;0.60;;;;;;;;;;7403618;19;20161;-88
2023/07/02 03:13:36;;;;;;;0.85;0.85;;;;;;;;;;7399921;19;20133;-88
2023/07/02 03:16:02;;;;;;;0.73;0.73;;;;;;;;;;7399728;19;20204;-88
2023/07/02 03:18:29;;;;;;;0.47;0.47;;;;;;;;;;7401564;19;20130;-90
2023/07/02 03:20:55;;;;;;;0.80;0.80;;;;;;;;;;7400695;19;20137;-88
2023/07/02 03:23:22;;;;;;;0.95;0.63;;;;;;;;;;7399384;19;20141;-90
2023/07/02 03:25:49;;;;;;;0.73;0.70;;;;;;;;;;7397879;19;20148;-89
2023/07/02 03:28:15;;;;;;;0.68;0.68;;;;;;;;;;7400305;19;20133;-89
2023/07/02 03:30:42;;;;;;;0.52;0.52;;;;;;;;;;7402208;19;20141;-89
2023/07/02 03:33:10;;;;;;;0.70;0.70;;;;;;;;;;7400124;19;20137;-90
2023/07/02 03:35:36;;;;;;;0.50;0.50;;;;;;;;;;7395130;19;20196;-88
2023/07/02 03:38:04;;;;;;;1.02;0.93;;;;;;;;;;7398012;19;20177;-89
2023/07/02 03:40:31;;;;;;;0.80;0.80;;;;;;;;;;7395810;19;20141;-88
2023/07/02 03:42:58;;;;;;;1.08;1.08;;;;;;;;;;7399972;19;20141;-90
2023/07/02 03:45:24;;;;;;;2.17;1.33;;;;;;;;;;7396744;19;20159;-90
2023/07/02 03:47:51;;;;;;;1.95;1.23;;;;;;;;;;7398257;19;20140;-88
2023/07/02 03:50:18;;;;;;;0.90;0.90;;;;;;;;;;7398603;19;20156;-87
2023/07/02 03:52:44;;;;;;;1.05;0.70;;;;;;;;;;7398766;19;20141;-87
2023/07/02 03:55:11;;;;;;;1.40;1.13;;;;;;;;;;7399547;19;20173;-87
2023/07/02 03:57:38;;;;;;;2.55;1.05;;;;;;;;;;7400141;19;20139;-89
2023/07/02 04:00:06;;;;;;;1.33;1.13;;;;;;;;;;7398682;19;20133;-88
2023/07/02 04:02:32;;;;;;;1.77;1.67;;;;;;;;;;7399563;19;20201;-88
2023/07/02 04:04:59;;;;;;;1.00;1.00;;;;;;;;;;7398086;19;20278;-89
2023/07/02 04:07:26;;;;;;;0.93;0.82;;;;;;;;;;7411198;19;20524;-88
2023/07/02 04:09:52;;;;;;;4.00;1.30;;;;;;;;;;7419484;19;20154;-90
2023/07/02 04:12:19;;;;;;;0.52;0.45;;;;;;;;;;7423076;19;20169;-89
2023/07/02 04:14:46;;;;;;;0.75;0.75;;;;;;;;;;7427705;19;20141;-91
2023/07/02 04:17:12;;;;;;;2.08;1.15;;;;;;;;;;7426662;19;20146;-90
2023/07/02 04:19:39;;;;;;;1.48;0.50;;;;;;;;;;7423532;19;20142;-90
2023/07/02 04:22:06;;;;;;;0.75;0.75;;;;;;;;;;7425091;19;20173;-90
2023/07/02 04:24:32;;;;;;;0.80;0.80;;;;;;;;;;7425794;19;20142;-89
2023/07/02 04:26:59;;;;;;;1.10;1.10;;;;;;;;;;7427139;19;20129;-90
2023/07/02 04:29:47;;;;;;;0.80;0.80;;;;;;;;;;7426268;19;20136;-90
2023/07/02 04:32:13;;;;;;;1.67;0.90;;;;;;;;;;7410158;19;20162;-90
2023/07/02 04:34:41;;;;;;;0.45;0.45;;;;;;;;;;7396648;19;20670;-89
2023/07/02 04:37:09;;;;;;;0.95;0.95;;;;;;;;;;7393667;19;20193;-90
2023/07/02 04:39:36;;;;;;;1.83;1.00;;;;;;;;;;7395206;19;20142;-90
2023/07/02 04:42:02;;;;;;;1.13;1.13;;;;;;;;;;7393376;19;20137;-90
2023/07/02 04:44:29;;;;;;;0.60;0.60;;;;;;;;;;7392692;19;20137;-90
2023/07/02 04:47:01;;;;;;;0.90;0.90;;;;;;;;;;7390688;19;20148;-90
2023/07/02 04:49:28;;;;;;;1.20;1.10;;;;;;;;;;7393447;19;20713;-90
2023/07/02 04:51:55;;;;;;;0.50;0.50;;;;;;;;;;7390194;19;20134;-91
2023/07/02 04:54:21;;;;;;;0.75;0.70;;;;;;;;;;7394881;19;20129;-90
2023/07/02 04:56:48;;;;;;;0.77;0.77;;;;;;;;;;7392519;19;20243;-90
2023/07/02 04:59:15;;;;;;;1.35;1.25;;;;;;;;;;7392141;19;20139;-90
2023/07/02 05:01:42;;;;;;;0.57;0.57;;;;;;;;;;7390783;19;20129;-91
2023/07/02 05:04:11;;;;;;;2.65;1.55;;;;;;;;;;7392832;19;20185;-92
2023/07/02 05:06:38;;;;;;;0.65;0.65;;;;;;;;;;7392258;19;20189;-91
2023/07/02 05:09:05;;;;;;;1.35;1.25;;;;;;;;;;7395008;19;20144;-90
2023/07/02 05:11:31;;;;;;;0.60;0.60;;;;;;;;;;7400047;19;20145;-90
2023/07/02 05:13:58;;;;;;;0.93;0.93;;;;;;;;;;7393957;19;20155;-90
2023/07/02 05:16:25;;;;;;;0.90;0.90;;;;;;;;;;7391421;19;20160;-90
2023/07/02 05:18:51;;;;;;;1.23;0.88;;;;;;;;;;7388080;19;20164;-89
2023/07/02 05:21:18;;;;;;;0.95;0.95;;;;;;;;;;7389058;19;20152;-91
2023/07/02 05:23:45;;;;;;;0.70;0.70;;;;;;;;;;7389075;19;20129;-90
2023/07/02 05:26:11;;;;;;;0.75;0.75;;;;;;;;;;7391844;19;20212;-90
2023/07/02 05:28:38;;;;;;;0.68;0.68;;;;;;;;;;7389658;19;20137;-90
2023/07/02 05:31:05;;;;;;;1.27;1.17;;;;;;;;;;7392983;19;20216;-90
2023/07/02 05:33:33;;;;;;;1.33;1.23;;;;;;;;;;7394549;19;20140;-90
2023/07/02 05:35:59;;;;;;;0.85;0.85;;;;;;;;;;7392446;19;20171;-91
2023/07/02 05:38:26;;;;;;;0.85;0.85;;;;;;;;;;7393099;19;20129;-91
2023/07/02 05:40:53;;;;;;;0.30;0.30;;;;;;;;;;7395583;19;20481;-90
2023/07/02 05:43:19;;;;;;;1.80;0.75;;;;;;;;;;7392512;19;20137;-89
2023/07/02 05:45:46;;;;;;;0.93;0.93;;;;;;;;;;7393175;19;20164;-90
2023/07/02 05:48:12;;;;;;;0.45;0.45;;;;;;;;;;7392376;19;20163;-91
2023/07/02 05:50:39;;;;;;;0.85;0.85;;;;;;;;;;7392036;19;20153;-90
2023/07/02 05:53:06;;;;;;;0.88;0.88;;;;;;;;;;7392205;19;20209;-90
2023/07/02 05:55:32;;;;;;;2.70;1.17;;;;;;;;;;7390126;19;20144;-90
2023/07/02 05:58:01;;;;;;;0.93;0.93;;;;;;;;;;7394582;19;20481;-90
2023/07/02 06:00:29;;;;;;;0.85;0.85;;;;;;;;;;7392314;19;20129;-89
2023/07/02 06:02:55;;;;;;;0.95;0.95;;;;;;;;;;7391971;19;20133;-90
2023/07/02 06:05:22;;;;;;;0.65;0.65;;;;;;;;;;7390993;19;20605;-89
2023/07/02 06:07:49;;;;;;;0.90;0.90;;;;;;;;;;7393761;19;20136;-90
2023/07/02 06:10:16;;;;;;;0.57;0.57;;;;;;;;;;7389736;19;20141;-88
2023/07/02 06:12:43;;;;;;;0.50;0.50;;;;;;;;;;7392600;19;20137;-88
2023/07/02 06:15:10;;;;;;;1.95;1.13;;;;;;;;;;7391592;19;20153;-89
2023/07/02 06:17:36;;;;;;;1.65;0.70;;;;;;;;;;7392388;19;20139;-90
2023/07/02 06:20:07;;;;;;;0.93;0.93;;;;;;;;;;7390638;19;20141;-88
2023/07/02 06:22:34;;;;;;;0.55;0.52;;;;;;;;;;7391006;19;20154;-91
2023/07/02 06:25:00;;;;;;;1.00;1.00;;;;;;;;;;7387226;19;20145;-89
2023/07/02 06:27:31;;;;;;;1.10;1.10;;;;;;;;;;7387297;19;20161;-90
2023/07/02 06:29:58;;;;;;;1.55;0.73;;;;;;;;;;7390291;19;20141;-89
2023/07/02 06:32:24;;;;;;;0.73;0.73;;;;;;;;;;7392963;19;20488;-89
2023/07/02 06:34:54;;;;;;;0.85;0.85;;;;;;;;;;7389441;19;20156;-88
2023/07/02 06:37:21;;;;;;;2.22;0.90;;;;;;;;;;7388060;19;20151;-88
2023/07/02 06:39:48;;;;;;;1.45;1.05;;;;;;;;;;7385018;19;20133;-89
2023/07/02 06:42:14;;;;;;;1.13;0.95;;;;;;;;;;7390936;19;20121;-90
2023/07/02 06:44:41;;;;;;;0.93;0.90;;;;;;;;;;7395349;19;20147;-90
2023/07/02 06:47:09;;;;;;;0.90;0.90;;;;;;;;;;7399177;19;20141;-89
2023/07/02 06:49:36;;;;;;;1.25;1.20;;;;;;;;;;7398349;19;20125;-90
2023/07/02 06:52:03;;;;;;;1.23;1.23;;;;;;;;;;7400621;19;20154;-90
2023/07/02 06:54:30;;;;;;;1.70;1.42;;;;;;;;;;7397517;19;20136;-87
2023/07/02 06:56:56;;;;;;;0.80;0.80;;;;;;;;;;7398963;19;20140;-87
2023/07/02 06:59:24;;;;;;;1.05;1.02;;;;;;;;;;7400837;19;20137;-89
2023/07/02 07:01:50;;;;;;;1.05;1.00;;;;;;;;;;7397077;19;20150;-88
2023/07/02 07:04:17;;;;;;;14.20;1.85;;;;;;;;;;7401452;19;20151;-90
2023/07/02 07:06:44;;;;;;;1.23;1.23;;;;;;;;;;7398464;19;20486;-87
2023/07/02 07:09:10;;;;;;;2.38;1.27;;;;;;;;;;7397825;19;20141;-90
2023/07/02 07:11:37;;;;;;;1.13;1.13;;;;;;;;;;7396267;19;20121;-88
2023/07/02 07:14:04;;;;;;;0.75;0.75;;;;;;;;;;7399681;19;20143;-89
2023/07/02 07:16:30;;;;;;;1.67;1.58;;;;;;;;;;7397410;19;20145;-89
2023/07/02 07:18:57;;;;;;;2.58;2.03;;;;;;;;;;7398392;19;20132;-89
2023/07/02 07:21:24;;;;;;;2.67;2.50;;;;;;;;;;7397649;19;20140;-90
2023/07/02 07:30:59;;;;;;;0.95;0.95;;;;;;;;;;7400126;19;20127;-87
2023/07/02 07:40:44;;;;;;;1.48;1.40;;;;;;;;;;7395216;19;20136;-88
2023/07/02 07:43:16;;;;;;;1.13;1.13;;;;;;;;;;7392630;19;20143;-88
2023/07/02 07:45:43;;;;;;;3.47;1.92;;;;;;;;;;7393998;19;20149;-88
2023/07/02 07:48:09;;;;;;;2.60;2.38;;;;;;;;;;7395674;19;20146;-89
2023/07/02 07:50:36;;;;;;;1.73;0.93;;;;;;;;;;7398635;19;20145;-89
2023/07/02 07:53:03;;;;;;;2.03;1.92;;;;;;;;;;7394914;19;20141;-89
2023/07/02 07:55:29;;;;;;;2.22;2.05;;;;;;;;;;7395201;19;20165;-89
2023/07/02 07:57:56;;;;;;;3.45;2.58;;;;;;;;;;7396458;19;20491;-89
2023/07/02 08:00:24;;;;;;;2.65;2.25;;;;;;;;;;7396547;19;20161;-89
2023/07/02 08:02:52;;;;;;;2.45;1.95;;;;;;;;;;7394989;19;20636;-88
2023/07/02 08:05:19;;;;;;;2.45;2.35;;;;;;;;;;7397306;19;20199;-87
2023/07/02 08:07:53;;;;;;;2.67;2.47;;;;;;;;;;7397507;19;20141;-90
2023/07/02 08:10:23;;;;;;;1.85;1.75;;;;;;;;;;7392737;19;20136;-90
2023/07/02 08:12:52;;;;;;;2.20;1.52;;;;;;;;;;7395053;19;20145;-89
2023/07/02 08:16:28;;;;;;;1.55;1.45;;;;;;;;;;7393998;19;20189;-87
2023/07/02 08:19:17;;;;;;;2.55;2.33;;;;;;;;;;7392896;19;20368;-88
2023/07/02 08:25:30;;;;;;;2.30;1.98;;;;;;;;;;7402384;19;20210;-96
2023/07/02 08:27:57;;;;;;;1.40;1.30;;;;;;;;;;7404800;19;20176;-94
2023/07/02 08:44:32;;;;;;;1.58;1.50;;;;;;;;;;7398262;19;20116;-86
2023/07/02 08:47:05;;;;;;;2.00;1.88;;;;;;;;;;7387259;19;20147;-88
2023/07/02 08:49:32;;;;;;;9.20;3.50;;;;;;;;;;7390041;19;20141;-88
2023/07/02 08:51:59;;;;;;;2.08;1.98;;;;;;;;;;7388934;19;20137;-88
2023/07/02 08:54:44;;;;;;;6.55;2.28;;;;;;;;;;7387309;19;20148;-91
2023/07/02 08:57:17;;;;;;;1.95;1.85;;;;;;;;;;7392872;19;20137;-89
2023/07/02 08:59:58;;;;;;;3.47;3.17;;;;;;;;;;7392389;19;20144;-90
2023/07/02 09:02:34;;;;;;;2.33;2.13;;;;;;;;;;7391955;19;20526;-90
2023/07/02 09:05:04;;;;;;;2.38;2.17;;;;;;;;;;7388015;19;20156;-88
2023/07/02 09:08:19;;;;;;;2.58;2.15;;;;;;;;;;7394831;19;20177;-92
2023/07/02 09:14:42;;;;;;;1.00;0.98;;;;;;;;;;7391840;19;20144;-91
2023/07/02 09:17:31;;;;;;;6.43;2.53;;;;;;;;;;7385991;19;20152;-88
2023/07/02 09:20:02;;;;;;;2.65;2.45;;;;;;;;;;7391562;19;20140;-87
2023/07/02 09:23:15;;;;;;;1.85;1.73;;;;;;;;;;7390219;19;20177;-88
2023/07/02 09:26:31;;;;;;;2.28;2.10;;;;;;;;;;7387941;19;20422;-89
2023/07/02 09:29:10;;;;;;;2.38;2.20;;;;;;;;;;7388085;19;20137;-87
2023/07/02 09:35:36;;;;;;;3.08;2.08;;;;;;;;;;7385522;19;20160;-88
2023/07/02 09:38:02;;;;;;;3.20;2.95;;;;;;;;;;7392842;19;20149;-91
2023/07/02 09:40:30;;;;;;;2.55;2.35;;;;;;;;;;7387587;19;20143;-89
2023/07/02 09:42:57;;;;;;;5.22;2.78;;;;;;;;;;7385628;19;20633;-89
2023/07/02 09:45:24;;;;;;;2.33;2.13;;;;;;;;;;7383281;19;20164;-89
2023/07/02 09:47:53;;;;;;;2.55;2.30;;;;;;;;;;7384495;19;20132;-88
2023/07/02 09:50:20;;;;;;;2.70;2.50;;;;;;;;;;7384726;19;20596;-90
2023/07/02 09:52:48;;;;;;;6.43;3.53;;;;;;;;;;7383838;19;20144;-89
2023/07/02 09:55:14;;;;;;;2.13;2.03;;;;;;;;;;7385576;19;20148;-90
2023/07/02 09:57:43;;;;;;;3.75;2.42;;;;;;;;;;7386764;19;20137;-90
2023/07/02 10:00:10;;;;;;;1.88;1.77;;;;;;;;;;7385220;19;20150;-86
2023/07/02 10:02:38;;;;;;;2.67;2.47;;;;;;;;;;7388321;19;20140;-86
2023/07/02 10:05:04;;;;;;;3.20;3.00;;;;;;;;;;7392116;19;20153;-86
2023/07/02 10:07:34;;;;;;;1.95;1.80;;;;;;;;;;7388975;19;20147;-88
2023/07/02 10:10:06;;;;;;;4.45;2.03;;;;;;;;;;7388979;19;20147;-88
2023/07/02 10:12:34;;;;;;;1.60;1.50;;;;;;;;;;7389839;19;20145;-87
2023/07/02 10:15:01;;;;;;;5.85;2.72;;;;;;;;;;7386877;19;20165;-86
2023/07/02 10:31:52;;;;;;;1.70;1.60;;;;;;;;;;7400951;19;20146;-90
2023/07/02 10:34:36;;;;;;;2.47;2.28;;;;;;;;;;7401841;19;20151;-90
2023/07/02 10:37:03;;;;;;;4.40;3.08;;;;;;;;;;7415848;19;20129;-88
2023/07/02 10:39:38;;;;;;;2.83;2.47;;;;;;;;;;7413753;19;20504;-89
2023/07/02 10:42:27;;;;;;;11.23;2.95;;;;;;;;;;7400865;19;20628;-86
2023/07/02 10:45:00;;;;;;;8.27;2.97;;;;;;;;;;7405599;19;20168;-86
2023/07/02 10:47:28;;;;;;;2.10;1.95;;;;;;;;;;7408373;19;20144;-88
2023/07/02 10:50:01;;;;;;;1.95;1.85;;;;;;;;;;7408907;19;20133;-88
2023/07/02 10:52:46;;;;;;;2.25;2.00;;;;;;;;;;7406179;19;20139;-88
2023/07/02 10:55:51;;;;;;;3.67;3.42;;;;;;;;;;7403586;19;20164;-88
2023/07/02 10:58:23;;;;;;;2.17;2.08;;;;;;;;;;7397818;19;20714;-85
2023/07/02 11:00:51;;;;;;;2.60;2.40;;;;;;;;;;7402697;19;20189;-89
2023/07/02 11:03:19;;;;;;;3.35;3.13;;;;;;;;;;7397557;19;20140;-87
2023/07/02 11:05:50;;;;;;;3.15;2.78;;;;;;;;;;7397992;19;20171;-90
2023/07/02 11:08:34;;;;;;;2.72;2.47;;;;;;;;;;7394734;19;20141;-89
2023/07/02 11:11:05;;;;;;;1.77;1.67;;;;;;;;;;7394236;19;20637;-89
2023/07/02 11:13:32;;;;;;;2.45;2.25;;;;;;;;;;7396817;19;20133;-88
2023/07/02 11:15:58;;;;;;;1.77;1.67;;;;;;;;;;7393802;19;20155;-89
2023/07/02 11:18:30;;;;;;;2.65;2.35;;;;;;;;;;7398823;19;20176;-87
2023/07/02 11:20:58;;;;;;;3.70;1.98;;;;;;;;;;7401349;19;20137;-89
2023/07/02 11:23:29;;;;;;;2.72;2.47;;;;;;;;;;7402075;19;20141;-88
2023/07/02 11:26:00;;;;;;;2.65;2.17;;;;;;;;;;7393011;19;20184;-89
2023/07/02 11:28:28;;;;;;;6.97;2.60;;;;;;;;;;7398134;19;20154;-92
2023/07/02 11:30:56;;;;;;;1.38;1.27;;;;;;;;;;7396425;19;20136;-88
2023/07/02 11:33:37;;;;;;;1.75;1.67;;;;;;;;;;7401970;19;20142;-89
2023/07/02 11:36:05;;;;;;;2.30;2.10;;;;;;;;;;7401546;19;20236;-86
2023/07/02 11:38:33;;;;;;;2.88;2.45;;;;;;;;;;7403698;19;20145;-86
2023/07/02 11:41:00;;;;;;;1.85;1.75;;;;;;;;;;7402371;19;20145;-87
2023/07/02 11:44:02;;;;;;;;;;;;;;;;;;;;;
2023/07/02 11:46:36;;;;;;;3.83;1.80;;;;;;;;;;7392613;19;20199;-90
2023/07/02 11:49:11;;;;;;;3.92;2.88;;;;;;;;;;7400111;19;20144;-91
2023/07/02 11:51:55;;;;;;;2.60;2.40;;;;;;;;;;7398560;19;20154;-91
2023/07/02 11:54:48;;;;;;;3.45;2.90;;;;;;;;;;7396761;19;20187;-92
2023/07/02 11:57:22;;;;;;;1.42;1.42;;;;;;;;;;7395559;19;20137;-91
2023/07/02 12:00:30;;;;;;;1.52;1.45;;;;;;;;;;7393750;19;20137;-91
2023/07/02 12:03:38;;;;;;;;;;;;;;;;;;;;;
2023/07/02 12:06:25;;;;;;;5.15;1.52;;;;;;;;;;7396384;19;20196;-92
2023/07/02 12:09:16;;;;;;;2.35;2.15;;;;;;;;;;7396932;19;20140;-91
2023/07/02 12:11:59;;;;;;;2.13;1.77;;;;;;;;;;7391794;19;20682;-91
2023/07/02 12:17:04;;;;;;;2.00;1.75;;;;;;;;;;7402098;19;20125;-89
2023/07/02 12:20:28;;;;;;;2.05;1.85;;;;;;;;;;7400887;19;20143;-90
2023/07/02 12:23:23;;;;;;;1.67;1.58;;;;;;;;;;7392781;19;20140;-89
2023/07/02 12:26:06;;;;;;;1.58;1.48;;;;;;;;;;7392228;19;20161;-92
2023/07/02 12:28:36;;;;;;;2.38;2.17;;;;;;;;;;7394340;19;20462;-90
2023/07/02 12:37:20;;;;;;;1.52;1.42;;;;;;;;;;7402646;19;20153;-89
2023/07/02 12:40:04;;;;;;;1.75;1.65;;;;;;;;;;7398419;19;20673;-90
2023/07/02 12:42:40;;;;;;;2.55;2.35;;;;;;;;;;7395886;19;20144;-92
2023/07/02 12:45:16;;;;;;;4.93;1.90;;;;;;;;;;7397099;19;20187;-93
2023/07/02 12:48:17;;;;;;;1.67;1.58;;;;;;;;;;7392735;19;20149;-92
2023/07/02 12:51:04;;;;;;;2.08;1.88;;;;;;;;;;7405308;19;20818;-90
2023/07/02 12:53:40;;;;;;;1.08;1.08;;;;;;;;;;7392295;19;20542;-92
2023/07/02 12:56:07;;;;;;;2.83;2.63;;;;;;;;;;7395550;19;20288;-90
2023/07/02 12:58:47;;;;;;;6.07;2.53;;;;;;;;;;7400191;19;20230;-90
2023/07/02 13:01:17;;;;;;;1.70;1.60;;;;;;;;;;7399821;19;20141;-91
2023/07/02 13:03:46;;;;;;;2.05;1.95;;;;;;;;;;7394854;19;20145;-92
2023/07/02 13:06:17;;;;;;;2.10;2.00;;;;;;;;;;7396038;19;20171;-90
2023/07/02 13:08:46;;;;;;;2.42;1.92;;;;;;;;;;7393067;19;20141;-91
2023/07/02 13:11:14;;;;;;;2.17;1.98;;;;;;;;;;7395694;19;20135;-90
2023/07/02 13:13:41;;;;;;;1.38;1.27;;;;;;;;;;7397576;19;20149;-91
2023/07/02 13:16:07;;;;;;;1.23;1.23;;;;;;;;;;7395633;19;20161;-90
2023/07/02 13:18:34;;;;;;;2.03;1.92;;;;;;;;;;7398606;19;20141;-91
2023/07/02 13:21:01;;;;;;;1.98;1.77;;;;;;;;;;7396828;19;20173;-90
2023/07/02 13:23:27;;;;;;;1.50;1.40;;;;;;;;;;7395568;19;20148;-90
2023/07/02 13:25:54;;;;;;;2.08;1.98;;;;;;;;;;7394263;19;20159;-90
2023/07/02 13:28:21;;;;;;;1.55;1.45;;;;;;;;;;7397786;19;20143;-91
2023/07/02 13:30:48;;;;;;;2.17;1.92;;;;;;;;;;7393574;19;20601;-91
2023/07/02 13:33:15;;;;;;;1.67;1.58;;;;;;;;;;7394663;19;20140;-90
2023/07/02 13:35:43;;;;;;;1.15;0.98;;;;;;;;;;7392046;19;20176;-91
2023/07/02 13:38:13;;;;;;;1.60;1.50;;;;;;;;;;7393638;19;20129;-90
2023/07/02 13:40:42;;;;;;;1.27;1.15;;;;;;;;;;7392068;19;20162;-91
2023/07/02 13:43:09;;;;;;;2.35;2.22;;;;;;;;;;7390795;19;20133;-91
2023/07/02 13:45:36;;;;;;;4.25;1.92;;;;;;;;;;7391697;19;20144;-90
2023/07/02 13:48:03;;;;;;;1.80;1.70;;;;;;;;;;7392043;19;20144;-90
2023/07/02 13:50:29;;;;;;;2.95;2.70;;;;;;;;;;7394321;19;20141;-91
2023/07/02 13:52:56;;;;;;;1.95;1.85;;;;;;;;;;7394656;19;20137;-90
2023/07/02 13:55:27;;;;;;;1.77;1.67;;;;;;;;;;7394288;19;20176;-92
2023/07/02 13:57:55;;;;;;;1.45;1.42;;;;;;;;;;7398276;19;20125;-90
2023/07/02 14:00:23;;;;;;;1.85;1.75;;;;;;;;;;7396747;19;20184;-92
2023/07/02 14:02:50;;;;;;;1.70;1.60;;;;;;;;;;7392119;19;20586;-92
2023/07/02 14:05:20;;;;;;;1.65;1.55;;;;;;;;;;7387235;19;20156;-91
2023/07/02 14:07:50;;;;;;;3.33;1.80;;;;;;;;;;7392267;19;20145;-91
2023/07/02 14:10:17;;;;;;;1.90;1.77;;;;;;;;;;7396203;19;20137;-92
2023/07/02 14:12:44;;;;;;;2.15;2.05;;;;;;;;;;7392429;19;20156;-91
2023/07/02 14:15:16;;;;;;;2.17;2.08;;;;;;;;;;7393735;19;20188;-91
2023/07/02 14:17:52;;;;;;;2.05;1.88;;;;;;;;;;7386694;19;20144;-91
2023/07/02 14:20:21;;;;;;;2.03;1.75;;;;;;;;;;7390129;19;20148;-92
2023/07/02 14:23:43;;;;;;;2.47;2.25;;;;;;;;;;7390988;19;20531;-91
2023/07/02 14:26:16;;;;;;;2.60;2.50;;;;;;;;;;7390807;19;20132;-91
2023/07/02 14:28:52;;;;;;;2.67;2.47;;;;;;;;;;7391359;19;20117;-91
2023/07/02 14:31:45;;;;;;;;;;;;;;;;;;;;;
2023/07/02 14:38:17;;;;;;;1.85;1.60;;;;;;;;;;7387196;19;20124;-91
2023/07/02 14:40:47;;;;;;;2.13;2.03;;;;;;;;;;7389730;19;20136;-91
2023/07/02 14:43:34;;;;;;;1.90;1.80;;;;;;;;;;7389597;19;20249;-91
2023/07/02 14:46:27;;;;;;;1.27;1.17;;;;;;;;;;7390520;19;20165;-91
2023/07/02 14:48:56;;;;;;;4.45;1.55;;;;;;;;;;7391374;19;20154;-91
2023/07/02 14:51:26;;;;;;;2.35;2.15;;;;;;;;;;7389172;19;20610;-92
2023/07/02 14:53:55;;;;;;;9.50;2.55;;;;;;;;;;7387592;19;20137;-91
2023/07/02 14:56:28;;;;;;;1.95;1.85;;;;;;;;;;7388453;19;20258;-90
2023/07/02 14:58:58;;;;;;;1.40;1.35;;;;;;;;;;7391920;19;20133;-91
2023/07/02 15:01:48;;;;;;;1.85;1.75;;;;;;;;;;7392524;19;20208;-91
2023/07/02 15:04:18;;;;;;;1.50;1.40;;;;;;;;;;7397983;19;20141;-93
2023/07/02 15:06:51;;;;;;;2.13;2.03;;;;;;;;;;7397893;19;20172;-91
2023/07/02 15:09:28;;;;;;;1.88;1.77;;;;;;;;;;7398024;19;20156;-91
2023/07/02 15:12:19;;;;;;;3.28;2.75;;;;;;;;;;7392572;19;20173;-92
2023/07/02 15:15:08;;;;;;;1.85;1.75;;;;;;;;;;7394352;19;20157;-88
2023/07/02 15:17:35;;;;;;;1.60;1.50;;;;;;;;;;7391912;19;20125;-89
2023/07/02 15:20:03;;;;;;;2.05;1.90;;;;;;;;;;7395760;19;20141;-89
2023/07/02 15:22:30;;;;;;;3.30;2.17;;;;;;;;;;7391615;19;20540;-89
2023/07/02 15:24:57;;;;;;;1.90;1.80;;;;;;;;;;7390668;19;20148;-89
2023/07/02 15:27:23;;;;;;;2.05;1.92;;;;;;;;;;7387842;19;20494;-90
2023/07/02 15:29:50;;;;;;;2.67;2.10;;;;;;;;;;7390097;19;20176;-90
2023/07/02 15:32:17;;;;;;;3.25;1.83;;;;;;;;;;7394301;19;20633;-88
2023/07/02 15:34:43;;;;;;;1.75;1.65;;;;;;;;;;7390413;19;20148;-89
2023/07/02 15:37:10;;;;;;;1.38;1.33;;;;;;;;;;7397442;19;20141;-89
2023/07/02 15:39:37;;;;;;;2.67;1.77;;;;;;;;;;7396020;19;20136;-88
2023/07/02 15:42:05;;;;;;;1.83;1.73;;;;;;;;;;7394408;19;20137;-89
2023/07/02 15:44:31;;;;;;;1.75;1.42;;;;;;;;;;7393408;19;20143;-88
2023/07/02 15:46:58;;;;;;;1.65;1.50;;;;;;;;;;7394421;19;20145;-89
2023/07/02 15:49:25;;;;;;;1.48;1.38;;;;;;;;;;7392410;19;20141;-89
2023/07/02 15:51:52;;;;;;;1.48;1.48;;;;;;;;;;7391505;19;20173;-90
2023/07/02 15:54:19;;;;;;;1.75;1.65;;;;;;;;;;7392228;19;20141;-90
2023/07/02 15:56:45;;;;;;;1.70;1.60;;;;;;;;;;7387744;19;20145;-89
2023/07/02 15:59:12;;;;;;;1.40;1.30;;;;;;;;;;7391128;19;20136;-89
2023/07/02 16:01:39;;;;;;;1.70;1.60;;;;;;;;;;7390557;19;20134;-89
2023/07/02 16:04:08;;;;;;;1.75;1.65;;;;;;;;;;7390151;19;20125;-89
2023/07/02 16:06:36;;;;;;;1.00;1.00;;;;;;;;;;7390353;19;20188;-89
2023/07/02 16:09:04;;;;;;;1.58;1.48;;;;;;;;;;7395943;19;20141;-87
2023/07/02 16:11:34;;;;;;;5.28;1.63;;;;;;;;;;7392879;19;20132;-89
2023/07/02 16:14:04;;;;;;;2.35;2.17;;;;;;;;;;7392442;19;20137;-89
2023/07/02 16:16:31;;;;;;;1.55;1.45;;;;;;;;;;7391791;19;20145;-89
2023/07/02 16:18:58;;;;;;;1.05;1.05;;;;;;;;;;7394692;19;20132;-88
2023/07/02 16:21:25;;;;;;;2.70;1.75;;;;;;;;;;7395581;19;20137;-89
2023/07/02 16:23:51;;;;;;;1.88;1.42;;;;;;;;;;7390175;19;20137;-90
2023/07/02 16:26:18;;;;;;;1.30;1.20;;;;;;;;;;7391680;19;20173;-88
2023/07/02 16:28:44;;;;;;;1.52;1.42;;;;;;;;;;7389787;19;20133;-89
2023/07/02 16:31:11;;;;;;;0.95;0.95;;;;;;;;;;7391040;19;20127;-90
2023/07/02 16:33:38;;;;;;;2.03;1.80;;;;;;;;;;7392604;19;20531;-90
2023/07/02 16:36:07;;;;;;;1.05;1.05;;;;;;;;;;7388461;19;20149;-88
2023/07/02 16:39:10;;;;;;;1.85;1.70;;;;;;;;;;7392463;19;20173;-88
2023/07/02 16:42:40;;;;;;;2.00;1.85;;;;;;;;;;7394160;19;20156;-89
2023/07/02 16:45:26;;;;;;;2.97;1.40;;;;;;;;;;7394414;19;20177;-90
2023/07/02 16:48:18;;;;;;;1.70;1.60;;;;;;;;;;7395630;19;20633;-90
2023/07/02 16:50:45;;;;;;;0.85;0.85;;;;;;;;;;7391225;19;20152;-89
2023/07/02 16:56:12;;;;;;;2.05;1.85;;;;;;;;;;7396585;19;20151;-94
2023/07/02 16:58:39;;;;;;;2.35;1.80;;;;;;;;;;7397477;19;20200;-95